sensor_id;sensor_type;location;lat;lon;timestamp;pressure;altitude;pressure_sealevel;temperature;humidity
16030;BME280;34770;49.272;11.070;2023-05-20T00:01:09;97773.28;;;11.91;71.26
16030;BME280;34770;49.272;11.070;2023-05-20T00:03:34;97823.69;;;12.23;71.69
16030;BME280;34770;49.272;11.070;2023-05-20T00:06:00;97774.31;;;11.81;71.87
16030;BME280;34770;49.272;11.070;2023-05-20T00:08:26;97763.72;;;11.58;72.52
16030;BME280;34770;49.272;11.070;2023-05-20T00:10:52;97794.59;;;11.77;72.88
16030;BME280;34770;49.272;11.070;2023-05-20T00:13:17;97865.31;;;12.23;72.42
16030;BME280;34770;49.272;11.070;2023-05-20T00:15:43;97768.16;;;11.50;72.86
16030;BME280;34770;49.272;11.070;2023-05-20T00:18:09;97796.00;;;11.71;73.40
16030;BME280;34770;49.272;11.070;2023-05-20T00:20:35;97810.19;;;11.84;73.17
16030;BME280;34770;49.272;11.070;2023-05-20T00:23:01;97792.13;;;11.54;73.79
16030;BME280;34770;49.272;11.070;2023-05-20T00:25:27;97814.44;;;11.77;73.51
16030;BME280;34770;49.272;11.070;2023-05-20T00:27:54;97818.31;;;11.84;73.35
16030;BME280;34770;49.272;11.070;2023-05-20T00:30:20;97785.28;;;11.79;73.08
16030;BME280;34770;49.272;11.070;2023-05-20T00:32:46;97766.03;;;11.73;73.00
16030;BME280;34770;49.272;11.070;2023-05-20T00:35:12;97867.00;;;12.43;72.52
16030;BME280;34770;49.272;11.070;2023-05-20T00:37:41;97762.72;;;11.88;72.56
16030;BME280;34770;49.272;11.070;2023-05-20T00:40:07;97763.72;;;11.87;72.08
16030;BME280;34770;49.272;11.070;2023-05-20T00:42:33;97878.84;;;12.52;72.76
16030;BME280;34770;49.272;11.070;2023-05-20T00:44:59;97870.09;;;12.58;72.57
16030;BME280;34770;49.272;11.070;2023-05-20T00:47:31;97747.16;;;11.81;72.71
16030;BME280;34770;49.272;11.070;2023-05-20T00:49:57;97745.72;;;11.86;72.85
16030;BME280;34770;49.272;11.070;2023-05-20T00:52:24;97771.41;;;12.01;72.89
16030;BME280;34770;49.272;11.070;2023-05-20T00:54:49;97728.84;;;11.83;72.64
16030;BME280;34770;49.272;11.070;2023-05-20T00:57:16;97847.81;;;12.54;72.69
16030;BME280;34770;49.272;11.070;2023-05-20T00:59:41;97771.69;;;12.08;72.75
16030;BME280;34770;49.272;11.070;2023-05-20T01:02:07;97732.44;;;11.83;73.00
16030;BME280;34770;49.272;11.070;2023-05-20T01:04:33;97781.97;;;12.04;73.00
16030;BME280;34770;49.272;11.070;2023-05-20T01:07:01;97742.31;;;11.84;72.89
16030;BME280;34770;49.272;11.070;2023-05-20T01:09:29;97754.28;;;11.91;73.56
16030;BME280;34770;49.272;11.070;2023-05-20T01:12:12;97747.13;;;11.90;73.24
16030;BME280;34770;49.272;11.070;2023-05-20T01:14:47;97838.22;;;12.50;73.09
16030;BME280;34770;49.272;11.070;2023-05-20T01:17:14;97739.72;;;11.83;73.32
16030;BME280;34770;49.272;11.070;2023-05-20T01:19:43;97842.78;;;12.50;73.64
16030;BME280;34770;49.272;11.070;2023-05-20T01:22:11;97838.78;;;12.54;73.74
16030;BME280;34770;49.272;11.070;2023-05-20T01:24:43;97835.03;;;12.55;73.46
16030;BME280;34770;49.272;11.070;2023-05-20T01:27:11;97719.31;;;11.79;73.43
16030;BME280;34770;49.272;11.070;2023-05-20T01:29:39;97716.28;;;11.82;73.27
16030;BME280;34770;49.272;11.070;2023-05-20T01:42:47;97783.94;;;12.31;73.51
16030;BME280;34770;49.272;11.070;2023-05-20T01:45:17;97762.66;;;12.17;73.45
16030;BME280;34770;49.272;11.070;2023-05-20T01:47:44;97749.22;;;12.15;73.63
16030;BME280;34770;49.272;11.070;2023-05-20T01:50:10;97723.84;;;11.88;73.68
16030;BME280;34770;49.272;11.070;2023-05-20T01:52:36;97738.38;;;12.06;74.05
16030;BME280;34770;49.272;11.070;2023-05-20T01:55:01;97778.34;;;12.33;73.71
16030;BME280;34770;49.272;11.070;2023-05-20T01:57:27;97714.53;;;11.90;73.81
16030;BME280;34770;49.272;11.070;2023-05-20T01:59:53;97713.84;;;11.88;73.77
16030;BME280;34770;49.272;11.070;2023-05-20T02:02:18;97810.06;;;12.42;74.23
16030;BME280;34770;49.272;11.070;2023-05-20T02:04:45;97698.03;;;11.64;73.76
16030;BME280;34770;49.272;11.070;2023-05-20T02:07:14;97814.97;;;12.29;74.45
16030;BME280;34770;49.272;11.070;2023-05-20T02:09:40;97701.72;;;11.63;74.50
16030;BME280;34770;49.272;11.070;2023-05-20T02:12:07;97728.56;;;11.76;74.77
16030;BME280;34770;49.272;11.070;2023-05-20T02:14:33;97732.03;;;11.78;75.05
16030;BME280;34770;49.272;11.070;2023-05-20T02:16:58;97718.41;;;11.69;74.81
16030;BME280;34770;49.272;11.070;2023-05-20T02:19:24;97690.16;;;11.52;75.20
16030;BME280;34770;49.272;11.070;2023-05-20T02:21:49;97704.59;;;11.52;75.58
16030;BME280;34770;49.272;11.070;2023-05-20T02:24:15;97817.56;;;12.11;75.79
16030;BME280;34770;49.272;11.070;2023-05-20T02:26:41;97805.28;;;11.97;76.11
16030;BME280;34770;49.272;11.070;2023-05-20T02:29:08;97699.34;;;11.22;75.98
16030;BME280;34770;49.272;11.070;2023-05-20T02:31:34;97756.84;;;11.54;76.24
16030;BME280;34770;49.272;11.070;2023-05-20T02:34:00;97763.16;;;11.64;76.51
16030;BME280;34770;49.272;11.070;2023-05-20T02:36:25;97787.41;;;11.66;77.02
16030;BME280;34770;49.272;11.070;2023-05-20T02:38:52;97716.00;;;11.37;76.91
16030;BME280;34770;49.272;11.070;2023-05-20T02:41:21;97729.16;;;11.41;76.09
16030;BME280;34770;49.272;11.070;2023-05-20T02:43:47;97741.13;;;11.48;76.60
16030;BME280;34770;49.272;11.070;2023-05-20T02:46:12;97695.91;;;11.30;76.75
16030;BME280;34770;49.272;11.070;2023-05-20T02:48:40;97810.28;;;12.02;76.53
16030;BME280;34770;49.272;11.070;2023-05-20T02:51:05;97733.28;;;11.64;76.59
16030;BME280;34770;49.272;11.070;2023-05-20T02:53:31;97737.88;;;11.64;76.36
16030;BME280;34770;49.272;11.070;2023-05-20T02:55:57;97817.44;;;12.12;76.42
16030;BME280;34770;49.272;11.070;2023-05-20T02:58:23;97792.00;;;11.94;76.23
16030;BME280;34770;49.272;11.070;2023-05-20T03:00:51;97811.56;;;12.07;76.23
16030;BME280;34770;49.272;11.070;2023-05-20T03:03:16;97826.41;;;12.13;76.44
16030;BME280;34770;49.272;11.070;2023-05-20T03:05:42;97737.28;;;11.60;76.42
16030;BME280;34770;49.272;11.070;2023-05-20T03:08:10;97712.84;;;11.51;76.38
16030;BME280;34770;49.272;11.070;2023-05-20T03:10:37;97724.00;;;11.57;76.43
16030;BME280;34770;49.272;11.070;2023-05-20T03:13:06;97748.19;;;11.70;75.97
16030;BME280;34770;49.272;11.070;2023-05-20T03:15:34;97778.59;;;11.83;76.27
16030;BME280;34770;49.272;11.070;2023-05-20T03:18:01;97760.31;;;11.76;75.75
16030;BME280;34770;49.272;11.070;2023-05-20T03:20:27;97719.72;;;11.55;75.98
16030;BME280;34770;49.272;11.070;2023-05-20T03:22:57;97736.47;;;11.70;75.78
16030;BME280;34770;49.272;11.070;2023-05-20T03:25:23;97787.44;;;11.95;76.27
16030;BME280;34770;49.272;11.070;2023-05-20T03:27:49;97830.69;;;12.15;76.23
16030;BME280;34770;49.272;11.070;2023-05-20T03:30:15;97717.88;;;11.46;76.09
16030;BME280;34770;49.272;11.070;2023-05-20T03:32:41;97792.00;;;11.85;75.92
16030;BME280;34770;49.272;11.070;2023-05-20T03:35:07;97824.59;;;12.04;76.47
16030;BME280;34770;49.272;11.070;2023-05-20T03:37:33;97823.44;;;12.06;76.53
16030;BME280;34770;49.272;11.070;2023-05-20T03:39:59;97817.72;;;12.09;76.02
16030;BME280;34770;49.272;11.070;2023-05-20T03:42:24;97809.00;;;11.96;76.35
16030;BME280;34770;49.272;11.070;2023-05-20T03:44:50;97805.41;;;11.96;76.19
16030;BME280;34770;49.272;11.070;2023-05-20T03:47:16;97832.56;;;12.05;76.52
16030;BME280;34770;49.272;11.070;2023-05-20T03:49:41;97817.72;;;12.00;76.63
16030;BME280;34770;49.272;11.070;2023-05-20T03:52:07;97833.72;;;12.03;76.41
16030;BME280;34770;49.272;11.070;2023-05-20T03:54:32;97818.00;;;12.06;76.71
16030;BME280;34770;49.272;11.070;2023-05-20T03:57:00;97811.44;;;11.99;76.27
16030;BME280;34770;49.272;11.070;2023-05-20T03:59:27;97829.16;;;12.03;76.52
16030;BME280;34770;49.272;11.070;2023-05-20T04:01:53;97825.88;;;12.09;76.42
16030;BME280;34770;49.272;11.070;2023-05-20T04:04:18;97821.84;;;12.13;76.24
16030;BME280;34770;49.272;11.070;2023-05-20T04:06:44;97822.88;;;12.12;75.96
16030;BME280;34770;49.272;11.070;2023-05-20T04:09:10;97822.41;;;12.17;76.43
16030;BME280;34770;49.272;11.070;2023-05-20T04:11:36;97811.44;;;12.09;76.35
16030;BME280;34770;49.272;11.070;2023-05-20T04:14:01;97824.81;;;12.30;75.68
16030;BME280;34770;49.272;11.070;2023-05-20T04:16:27;97820.53;;;12.27;75.85
16030;BME280;34770;49.272;11.070;2023-05-20T04:18:54;97814.38;;;12.35;75.99
16030;BME280;34770;49.272;11.070;2023-05-20T04:21:20;97793.53;;;12.26;75.57
16030;BME280;34770;49.272;11.070;2023-05-20T04:23:45;97820.53;;;12.27;75.70
16030;BME280;34770;49.272;11.070;2023-05-20T04:26:12;97822.53;;;12.25;75.67
16030;BME280;34770;49.272;11.070;2023-05-20T04:28:37;97818.38;;;12.31;75.79
16030;BME280;34770;49.272;11.070;2023-05-20T04:31:06;97804.50;;;12.34;75.59
16030;BME280;34770;49.272;11.070;2023-05-20T04:33:32;97823.50;;;12.43;75.83
16030;BME280;34770;49.272;11.070;2023-05-20T04:36:02;97825.50;;;12.51;75.67
16030;BME280;34770;49.272;11.070;2023-05-20T04:38:29;97826.75;;;12.56;75.30
16030;BME280;34770;49.272;11.070;2023-05-20T04:40:59;97811.91;;;12.51;75.56
16030;BME280;34770;49.272;11.070;2023-05-20T04:43:26;97812.00;;;12.59;74.98
16030;BME280;34770;49.272;11.070;2023-05-20T04:45:54;97814.94;;;12.75;75.13
16030;BME280;34770;49.272;11.070;2023-05-20T04:48:20;97791.38;;;12.66;74.54
16030;BME280;34770;49.272;11.070;2023-05-20T04:50:46;97798.91;;;12.82;74.69
16030;BME280;34770;49.272;11.070;2023-05-20T04:53:13;97784.31;;;12.83;74.79
16030;BME280;34770;49.272;11.070;2023-05-20T04:55:38;97804.03;;;12.85;74.49
16030;BME280;34770;49.272;11.070;2023-05-20T04:58:04;97804.31;;;12.91;74.10
16030;BME280;34770;49.272;11.070;2023-05-20T05:00:30;97814.25;;;13.10;73.49
16030;BME280;34770;49.272;11.070;2023-05-20T05:02:55;97812.19;;;13.21;73.65
16030;BME280;34770;49.272;11.070;2023-05-20T05:05:21;97810.63;;;13.36;72.78
16030;BME280;34770;49.272;11.070;2023-05-20T05:07:46;97817.06;;;13.63;73.01
16030;BME280;34770;49.272;11.070;2023-05-20T05:10:12;97810.50;;;13.73;73.38
16030;BME280;34770;49.272;11.070;2023-05-20T05:12:37;97794.41;;;13.80;71.72
16030;BME280;34770;49.272;11.070;2023-05-20T05:15:03;97801.47;;;14.08;70.71
16030;BME280;34770;49.272;11.070;2023-05-20T05:17:29;97803.31;;;14.25;70.13
16030;BME280;34770;49.272;11.070;2023-05-20T05:19:54;97805.31;;;14.41;69.42
16030;BME280;34770;49.272;11.070;2023-05-20T05:22:20;97799.41;;;14.45;68.62
16030;BME280;34770;49.272;11.070;2023-05-20T05:24:46;97801.50;;;14.60;67.84
16030;BME280;34770;49.272;11.070;2023-05-20T05:27:11;97810.50;;;14.78;68.29
16030;BME280;34770;49.272;11.070;2023-05-20T05:29:37;97805.44;;;14.91;67.46
16030;BME280;34770;49.272;11.070;2023-05-20T05:32:02;97795.75;;;14.96;66.29
16030;BME280;34770;49.272;11.070;2023-05-20T05:34:28;97802.09;;;15.05;66.69
16030;BME280;34770;49.272;11.070;2023-05-20T05:36:53;97785.59;;;15.15;66.68
16030;BME280;34770;49.272;11.070;2023-05-20T05:39:19;97785.81;;;15.21;65.90
16030;BME280;34770;49.272;11.070;2023-05-20T05:41:44;97793.34;;;15.35;66.18
16030;BME280;34770;49.272;11.070;2023-05-20T05:44:10;97804.97;;;15.45;64.95
16030;BME280;34770;49.272;11.070;2023-05-20T05:46:36;97801.53;;;15.35;64.44
16030;BME280;34770;49.272;11.070;2023-05-20T05:49:02;97796.09;;;15.43;64.93
16030;BME280;34770;49.272;11.070;2023-05-20T05:51:28;97787.28;;;15.49;65.22
16030;BME280;34770;49.272;11.070;2023-05-20T05:53:55;97786.44;;;15.57;64.17
16030;BME280;34770;49.272;11.070;2023-05-20T05:56:20;97789.16;;;15.57;63.89
16030;BME280;34770;49.272;11.070;2023-05-20T05:58:49;97792.78;;;15.65;64.14
16030;BME280;34770;49.272;11.070;2023-05-20T06:01:15;97789.03;;;15.75;62.93
16030;BME280;34770;49.272;11.070;2023-05-20T06:03:41;97775.72;;;15.72;63.20
16030;BME280;34770;49.272;11.070;2023-05-20T06:06:06;97779.78;;;15.84;62.75
16030;BME280;34770;49.272;11.070;2023-05-20T06:08:32;97777.59;;;15.95;62.84
16030;BME280;34770;49.272;11.070;2023-05-20T06:10:58;97771.25;;;15.95;63.47
16030;BME280;34770;49.272;11.070;2023-05-20T06:13:23;97763.25;;;16.01;62.89
16030;BME280;34770;49.272;11.070;2023-05-20T06:15:49;97763.44;;;16.08;62.41
16030;BME280;34770;49.272;11.070;2023-05-20T06:18:15;97762.88;;;16.20;61.95
16030;BME280;34770;49.272;11.070;2023-05-20T06:20:40;97760.31;;;16.35;62.41
16030;BME280;34770;49.272;11.070;2023-05-20T06:23:06;97757.59;;;16.27;61.53
16030;BME280;34770;49.272;11.070;2023-05-20T06:25:31;97761.69;;;16.39;61.47
16030;BME280;34770;49.272;11.070;2023-05-20T06:27:57;97763.69;;;16.45;61.63
16030;BME280;34770;49.272;11.070;2023-05-20T06:30:22;97762.00;;;16.52;60.71
16030;BME280;34770;49.272;11.070;2023-05-20T06:32:48;97752.44;;;16.56;61.14
16030;BME280;34770;49.272;11.070;2023-05-20T06:35:13;97759.22;;;16.76;61.30
16030;BME280;34770;49.272;11.070;2023-05-20T06:37:39;97761.19;;;16.99;61.19
16030;BME280;34770;49.272;11.070;2023-05-20T06:40:05;97757.50;;;17.22;60.68
16030;BME280;34770;49.272;11.070;2023-05-20T06:42:30;97761.31;;;17.13;59.53
16030;BME280;34770;49.272;11.070;2023-05-20T06:44:56;97756.00;;;17.12;58.86
16030;BME280;34770;49.272;11.070;2023-05-20T06:47:21;97744.00;;;17.13;58.44
16030;BME280;34770;49.272;11.070;2023-05-20T06:49:47;97752.19;;;17.21;58.92
16030;BME280;34770;49.272;11.070;2023-05-20T06:52:12;97736.69;;;17.36;59.48
16030;BME280;34770;49.272;11.070;2023-05-20T06:54:38;97739.69;;;17.49;58.21
16030;BME280;34770;49.272;11.070;2023-05-20T06:57:09;97745.94;;;17.66;57.82
16030;BME280;34770;49.272;11.070;2023-05-20T06:59:35;97741.22;;;17.60;57.14
16030;BME280;34770;49.272;11.070;2023-05-20T07:02:02;97737.50;;;17.75;56.69
16030;BME280;34770;49.272;11.070;2023-05-20T07:04:27;97742.47;;;17.94;56.94
16030;BME280;34770;49.272;11.070;2023-05-20T07:06:53;97739.00;;;18.01;56.64
16030;BME280;34770;49.272;11.070;2023-05-20T07:09:18;97737.63;;;18.19;56.88
16030;BME280;34770;49.272;11.070;2023-05-20T07:11:44;97733.63;;;18.30;56.47
16030;BME280;34770;49.272;11.070;2023-05-20T07:14:09;97741.28;;;18.34;55.86
16030;BME280;34770;49.272;11.070;2023-05-20T07:16:35;97724.50;;;18.52;57.28
16030;BME280;34770;49.272;11.070;2023-05-20T07:19:02;97717.00;;;18.75;54.78
16030;BME280;34770;49.272;11.070;2023-05-20T07:21:27;97725.47;;;18.36;53.69
16030;BME280;34770;49.272;11.070;2023-05-20T07:23:53;97719.53;;;18.33;53.41
16030;BME280;34770;49.272;11.070;2023-05-20T07:26:18;97729.56;;;18.40;53.87
16030;BME280;34770;49.272;11.070;2023-05-20T07:28:44;97698.75;;;18.53;53.87
16030;BME280;34770;49.272;11.070;2023-05-20T07:31:11;97711.06;;;18.72;53.71
16030;BME280;34770;49.272;11.070;2023-05-20T07:33:36;97705.00;;;19.05;53.30
16030;BME280;34770;49.272;11.070;2023-05-20T07:36:02;97723.84;;;19.08;52.43
16030;BME280;34770;49.272;11.070;2023-05-20T07:38:28;97718.13;;;19.25;52.47
16030;BME280;34770;49.272;11.070;2023-05-20T07:40:54;97707.31;;;19.23;52.42
16030;BME280;34770;49.272;11.070;2023-05-20T07:43:19;97716.28;;;19.32;51.59
16030;BME280;34770;49.272;11.070;2023-05-20T07:45:45;97710.06;;;19.23;51.84
16030;BME280;34770;49.272;11.070;2023-05-20T07:48:10;97716.66;;;19.29;51.59
16030;BME280;34770;49.272;11.070;2023-05-20T07:50:37;97716.66;;;19.43;51.75
16030;BME280;34770;49.272;11.070;2023-05-20T07:53:04;97716.78;;;19.21;51.68
16030;BME280;34770;49.272;11.070;2023-05-20T07:55:32;97720.00;;;19.24;51.66
16030;BME280;34770;49.272;11.070;2023-05-20T07:57:58;97694.22;;;19.40;51.84
16030;BME280;34770;49.272;11.070;2023-05-20T08:00:23;97702.88;;;19.58;51.39
16030;BME280;34770;49.272;11.070;2023-05-20T08:02:49;97704.91;;;19.49;50.96
16030;BME280;34770;49.272;11.070;2023-05-20T08:05:15;97695.44;;;19.73;50.91
16030;BME280;34770;49.272;11.070;2023-05-20T08:07:40;97694.88;;;20.05;49.75
16030;BME280;34770;49.272;11.070;2023-05-20T08:10:06;97700.25;;;20.13;49.39
16030;BME280;34770;49.272;11.070;2023-05-20T08:12:32;97687.88;;;20.03;50.06
16030;BME280;34770;49.272;11.070;2023-05-20T08:14:57;97679.97;;;19.93;50.21
16030;BME280;34770;49.272;11.070;2023-05-20T08:17:23;97690.22;;;20.27;49.43
16030;BME280;34770;49.272;11.070;2023-05-20T08:19:48;97685.00;;;20.32;48.70
16030;BME280;34770;49.272;11.070;2023-05-20T08:22:13;97699.00;;;20.37;48.60
16030;BME280;34770;49.272;11.070;2023-05-20T08:24:39;97698.59;;;20.19;48.90
16030;BME280;34770;49.272;11.070;2023-05-20T08:27:05;97688.13;;;20.57;48.17
16030;BME280;34770;49.272;11.070;2023-05-20T08:29:30;97680.75;;;20.98;47.37
16030;BME280;34770;49.272;11.070;2023-05-20T08:31:56;97678.44;;;21.49;46.92
16030;BME280;34770;49.272;11.070;2023-05-20T08:34:21;97679.69;;;21.47;46.77
16030;BME280;34770;49.272;11.070;2023-05-20T08:36:47;97685.59;;;21.37;47.03
16030;BME280;34770;49.272;11.070;2023-05-20T08:39:13;97683.91;;;21.43;46.05
16030;BME280;34770;49.272;11.070;2023-05-20T08:41:39;97689.75;;;21.80;45.30
16030;BME280;34770;49.272;11.070;2023-05-20T08:44:06;97682.78;;;21.91;44.23
16030;BME280;34770;49.272;11.070;2023-05-20T08:46:33;97666.50;;;21.42;45.28
16030;BME280;34770;49.272;11.070;2023-05-20T08:48:58;97675.75;;;21.75;46.05
16030;BME280;34770;49.272;11.070;2023-05-20T08:51:26;97674.72;;;21.96;45.97
16030;BME280;34770;49.272;11.070;2023-05-20T08:53:52;97674.50;;;22.04;45.11
16030;BME280;34770;49.272;11.070;2023-05-20T08:56:18;97685.13;;;22.33;44.50
16030;BME280;34770;49.272;11.070;2023-05-20T08:58:46;97665.97;;;22.78;44.34
16030;BME280;34770;49.272;11.070;2023-05-20T09:01:11;97677.97;;;23.16;44.24
16030;BME280;34770;49.272;11.070;2023-05-20T09:03:37;97667.75;;;23.17;42.42
16030;BME280;34770;49.272;11.070;2023-05-20T09:06:06;97658.28;;;23.44;43.35
16030;BME280;34770;49.272;11.070;2023-05-20T09:08:32;97675.75;;;23.44;42.46
16030;BME280;34770;49.272;11.070;2023-05-20T09:10:59;97668.97;;;23.27;42.87
16030;BME280;34770;49.272;11.070;2023-05-20T09:13:26;97671.69;;;22.83;43.54
16030;BME280;34770;49.272;11.070;2023-05-20T09:15:51;97684.16;;;23.05;42.68
16030;BME280;34770;49.272;11.070;2023-05-20T09:18:17;97679.19;;;22.36;44.52
16030;BME280;34770;49.272;11.070;2023-05-20T09:20:46;97679.13;;;22.63;41.96
16030;BME280;34770;49.272;11.070;2023-05-20T09:23:12;97675.13;;;22.59;43.47
16030;BME280;34770;49.272;11.070;2023-05-20T09:25:37;97660.88;;;22.48;43.52
16030;BME280;34770;49.272;11.070;2023-05-20T09:28:05;97676.00;;;22.33;43.88
16030;BME280;34770;49.272;11.070;2023-05-20T09:30:32;97684.06;;;22.08;44.39
16030;BME280;34770;49.272;11.070;2023-05-20T09:32:59;97672.16;;;22.01;44.12
16030;BME280;34770;49.272;11.070;2023-05-20T09:35:26;97675.28;;;21.78;45.21
16030;BME280;34770;49.272;11.070;2023-05-20T09:37:56;97670.84;;;21.84;45.38
16030;BME280;34770;49.272;11.070;2023-05-20T09:40:24;97656.84;;;21.85;44.40
16030;BME280;34770;49.272;11.070;2023-05-20T09:42:55;97672.13;;;22.60;43.36
16030;BME280;34770;49.272;11.070;2023-05-20T09:45:21;97663.59;;;23.01;42.21
16030;BME280;34770;49.272;11.070;2023-05-20T09:47:50;97666.09;;;23.60;41.36
16030;BME280;34770;49.272;11.070;2023-05-20T09:50:16;97652.16;;;24.36;42.25
16030;BME280;34770;49.272;11.070;2023-05-20T09:52:42;97660.78;;;24.21;39.71
16030;BME280;34770;49.272;11.070;2023-05-20T09:55:08;97651.69;;;23.83;40.56
16030;BME280;34770;49.272;11.070;2023-05-20T09:57:37;97658.88;;;23.90;41.62
16030;BME280;34770;49.272;11.070;2023-05-20T10:00:04;97659.38;;;23.43;41.45
16030;BME280;34770;49.272;11.070;2023-05-20T10:02:31;97656.94;;;23.08;41.65
16030;BME280;34770;49.272;11.070;2023-05-20T10:04:58;97648.81;;;23.64;42.13
16030;BME280;34770;49.272;11.070;2023-05-20T10:10:38;97642.59;;;24.32;40.15
16030;BME280;34770;49.272;11.070;2023-05-20T10:15:59;97636.72;;;24.21;39.73
16030;BME280;34770;49.272;11.070;2023-05-20T10:21:29;97629.13;;;22.97;41.15
16030;BME280;34770;49.272;11.070;2023-05-20T10:24:05;97632.75;;;23.04;42.53
16030;BME280;34770;49.272;11.070;2023-05-20T10:26:35;97635.66;;;23.60;42.33
16030;BME280;34770;49.272;11.070;2023-05-20T10:29:00;97636.31;;;24.18;40.84
16030;BME280;34770;49.272;11.070;2023-05-20T10:31:26;97617.03;;;24.30;39.38
16030;BME280;34770;49.272;11.070;2023-05-20T10:33:52;97619.78;;;24.54;38.49
16030;BME280;34770;49.272;11.070;2023-05-20T10:36:25;97627.25;;;24.54;39.38
16030;BME280;34770;49.272;11.070;2023-05-20T10:38:53;97610.84;;;24.52;38.66
16030;BME280;34770;49.272;11.070;2023-05-20T10:41:26;97603.78;;;24.74;38.35
16030;BME280;34770;49.272;11.070;2023-05-20T10:44:08;97627.88;;;24.74;39.14
16030;BME280;34770;49.272;11.070;2023-05-20T10:46:34;97607.84;;;24.54;39.33
16030;BME280;34770;49.272;11.070;2023-05-20T10:49:03;97616.91;;;24.86;39.54
16030;BME280;34770;49.272;11.070;2023-05-20T10:51:29;97620.75;;;24.85;38.69
16030;BME280;34770;49.272;11.070;2023-05-20T10:53:56;97590.72;;;24.82;38.03
16030;BME280;34770;49.272;11.070;2023-05-20T10:56:23;97609.63;;;25.21;37.70
16030;BME280;34770;49.272;11.070;2023-05-20T10:58:50;97597.91;;;24.89;38.61
16030;BME280;34770;49.272;11.070;2023-05-20T11:01:16;97611.31;;;24.67;39.42
16030;BME280;34770;49.272;11.070;2023-05-20T11:03:44;97601.56;;;25.01;39.51
16030;BME280;34770;49.272;11.070;2023-05-20T11:06:16;97587.63;;;25.26;37.88
16030;BME280;34770;49.272;11.070;2023-05-20T11:08:43;97582.41;;;25.89;37.67
16030;BME280;34770;49.272;11.070;2023-05-20T11:11:12;97592.25;;;26.15;38.26
16030;BME280;34770;49.272;11.070;2023-05-20T11:13:39;97596.09;;;25.61;36.59
16030;BME280;34770;49.272;11.070;2023-05-20T11:16:05;97585.28;;;25.71;37.14
16030;BME280;34770;49.272;11.070;2023-05-20T11:18:31;97571.50;;;25.16;37.32
16030;BME280;34770;49.272;11.070;2023-05-20T11:21:00;97575.94;;;25.06;38.47
16030;BME280;34770;49.272;11.070;2023-05-20T11:23:27;97576.41;;;25.03;38.34
16030;BME280;34770;49.272;11.070;2023-05-20T11:25:54;97584.03;;;24.89;38.49
16030;BME280;34770;49.272;11.070;2023-05-20T11:28:20;97579.09;;;25.09;38.28
16030;BME280;34770;49.272;11.070;2023-05-20T11:30:47;97558.44;;;25.35;37.17
16030;BME280;34770;49.272;11.070;2023-05-20T11:33:15;97564.91;;;26.00;37.35
16030;BME280;34770;49.272;11.070;2023-05-20T11:35:53;97567.81;;;26.05;36.16
16030;BME280;34770;49.272;11.070;2023-05-20T11:38:19;97570.31;;;25.83;37.17
16030;BME280;34770;49.272;11.070;2023-05-20T11:40:51;97549.25;;;26.17;36.60
16030;BME280;34770;49.272;11.070;2023-05-20T11:43:18;97573.84;;;26.02;37.46
16030;BME280;34770;49.272;11.070;2023-05-20T11:45:45;97560.13;;;25.66;37.09
16030;BME280;34770;49.272;11.070;2023-05-20T11:48:11;97528.03;;;25.28;37.84
16030;BME280;34770;49.272;11.070;2023-05-20T11:50:41;97564.88;;;25.65;38.80
16030;BME280;34770;49.272;11.070;2023-05-20T11:53:08;97556.13;;;25.50;37.99
16030;BME280;34770;49.272;11.070;2023-05-20T11:55:48;97538.16;;;25.53;38.07
16030;BME280;34770;49.272;11.070;2023-05-20T11:58:15;97556.53;;;25.65;38.12
16030;BME280;34770;49.272;11.070;2023-05-20T12:00:42;97547.75;;;25.68;37.67
16030;BME280;34770;49.272;11.070;2023-05-20T12:03:08;97557.06;;;26.09;37.61
16030;BME280;34770;49.272;11.070;2023-05-20T12:05:33;97550.41;;;25.86;37.73
16030;BME280;34770;49.272;11.070;2023-05-20T12:07:58;97548.03;;;26.02;38.00
16030;BME280;34770;49.272;11.070;2023-05-20T12:10:24;97558.97;;;25.73;38.12
16030;BME280;34770;49.272;11.070;2023-05-20T12:12:52;97543.22;;;25.56;38.29
16030;BME280;34770;49.272;11.070;2023-05-20T12:15:17;97550.16;;;25.76;38.48
16030;BME280;34770;49.272;11.070;2023-05-20T12:17:48;97538.88;;;25.30;38.82
16030;BME280;34770;49.272;11.070;2023-05-20T12:20:20;97551.50;;;25.14;39.55
16030;BME280;34770;49.272;11.070;2023-05-20T12:22:46;97546.03;;;25.08;39.36
16030;BME280;34770;49.272;11.070;2023-05-20T12:25:13;97550.84;;;25.01;39.94
16030;BME280;34770;49.272;11.070;2023-05-20T12:27:40;97546.03;;;24.71;40.36
16030;BME280;34770;49.272;11.070;2023-05-20T12:30:07;97547.00;;;24.84;39.80
16030;BME280;34770;49.272;11.070;2023-05-20T12:32:34;97546.22;;;24.95;39.62
16030;BME280;34770;49.272;11.070;2023-05-20T12:35:00;97526.69;;;25.01;39.82
16030;BME280;34770;49.272;11.070;2023-05-20T12:37:25;97527.34;;;25.03;40.30
16030;BME280;34770;49.272;11.070;2023-05-20T12:39:51;97539.78;;;25.12;39.67
16030;BME280;34770;49.272;11.070;2023-05-20T12:42:17;97540.97;;;25.46;40.45
16030;BME280;34770;49.272;11.070;2023-05-20T12:44:43;97528.56;;;25.90;39.41
16030;BME280;34770;49.272;11.070;2023-05-20T12:47:08;97547.88;;;26.08;38.48
16030;BME280;34770;49.272;11.070;2023-05-20T12:49:34;97535.19;;;26.70;37.61
16030;BME280;34770;49.272;11.070;2023-05-20T12:51:59;97537.88;;;27.17;36.58
16030;BME280;34770;49.272;11.070;2023-05-20T12:54:25;97518.78;;;26.80;37.53
16030;BME280;34770;49.272;11.070;2023-05-20T12:56:55;97534.78;;;27.01;36.75
16030;BME280;34770;49.272;11.070;2023-05-20T12:59:21;97529.41;;;27.40;36.12
16030;BME280;34770;49.272;11.070;2023-05-20T13:01:47;97544.22;;;28.02;35.05
16030;BME280;34770;49.272;11.070;2023-05-20T13:04:12;97520.38;;;27.61;34.54
16030;BME280;34770;49.272;11.070;2023-05-20T13:06:38;97532.97;;;27.80;35.60